sensor_id;sensor_type;location;lat;lon;timestamp;temperature;humidity
13806;DHT22;6974;53.606;9.872;2023-07-09T00:00:43;22.40;99.90
13806;DHT22;6974;53.606;9.872;2023-07-09T00:03:12;22.40;99.90
13806;DHT22;6974;53.606;9.872;2023-07-09T00:05:40;22.40;99.90
13806;DHT22;6974;53.606;9.872;2023-07-09T00:08:19;22.40;99.90
13806;DHT22;6974;53.606;9.872;2023-07-09T00:10:48;22.40;99.90
13806;DHT22;6974;53.606;9.872;2023-07-09T00:13:17;22.30;99.90
13806;DHT22;6974;53.606;9.872;2023-07-09T00:15:44;22.30;99.90
13806;DHT22;6974;53.606;9.872;2023-07-09T00:18:11;22.30;99.90
13806;DHT22;6974;53.606;9.872;2023-07-09T00:20:38;22.30;99.90
13806;DHT22;6974;53.606;9.872;2023-07-09T00:23:07;22.30;99.90
13806;DHT22;6974;53.606;9.872;2023-07-09T00:25:34;22.20;99.90
13806;DHT22;6974;53.606;9.872;2023-07-09T00:28:02;22.20;99.90
13806;DHT22;6974;53.606;9.872;2023-07-09T00:30:32;22.20;99.90
13806;DHT22;6974;53.606;9.872;2023-07-09T00:32:59;22.20;99.90
13806;DHT22;6974;53.606;9.872;2023-07-09T00:35:27;22.20;99.90
13806;DHT22;6974;53.606;9.872;2023-07-09T00:37:54;22.20;99.90
13806;DHT22;6974;53.606;9.872;2023-07-09T00:40:25;22.20;99.90
13806;DHT22;6974;53.606;9.872;2023-07-09T00:42:54;22.20;99.90
13806;DHT22;6974;53.606;9.872;2023-07-09T00:45:24;22.10;99.90
13806;DHT22;6974;53.606;9.872;2023-07-09T00:47:55;22.10;99.90
13806;DHT22;6974;53.606;9.872;2023-07-09T00:50:34;22.10;99.90
13806;DHT22;6974;53.606;9.872;2023-07-09T00:53:04;22.00;99.90
13806;DHT22;6974;53.606;9.872;2023-07-09T00:55:38;22.00;99.90
13806;DHT22;6974;53.606;9.872;2023-07-09T00:58:10;22.00;99.90
13806;DHT22;6974;53.606;9.872;2023-07-09T01:00:41;21.90;99.90
13806;DHT22;6974;53.606;9.872;2023-07-09T01:03:25;21.90;99.90
13806;DHT22;6974;53.606;9.872;2023-07-09T01:05:56;21.90;99.90
13806;DHT22;6974;53.606;9.872;2023-07-09T01:08:24;21.90;99.90
13806;DHT22;6974;53.606;9.872;2023-07-09T01:10:53;21.90;99.90
13806;DHT22;6974;53.606;9.872;2023-07-09T01:13:21;21.90;99.90
13806;DHT22;6974;53.606;9.872;2023-07-09T01:15:48;21.90;99.90
13806;DHT22;6974;53.606;9.872;2023-07-09T01:18:17;21.80;99.90
13806;DHT22;6974;53.606;9.872;2023-07-09T01:20:44;21.80;99.90
13806;DHT22;6974;53.606;9.872;2023-07-09T01:23:13;21.80;99.90
13806;DHT22;6974;53.606;9.872;2023-07-09T01:25:51;21.80;99.90
13806;DHT22;6974;53.606;9.872;2023-07-09T01:28:20;21.80;99.90
13806;DHT22;6974;53.606;9.872;2023-07-09T01:30:47;21.70;99.90
13806;DHT22;6974;53.606;9.872;2023-07-09T01:33:20;21.70;99.90
13806;DHT22;6974;53.606;9.872;2023-07-09T01:35:48;21.70;99.90
13806;DHT22;6974;53.606;9.872;2023-07-09T01:38:16;21.70;99.90
13806;DHT22;6974;53.606;9.872;2023-07-09T01:40:43;21.70;99.90
13806;DHT22;6974;53.606;9.872;2023-07-09T01:43:12;21.70;99.90
13806;DHT22;6974;53.606;9.872;2023-07-09T01:45:39;21.60;99.90
13806;DHT22;6974;53.606;9.872;2023-07-09T01:48:06;21.70;99.90
13806;DHT22;6974;53.606;9.872;2023-07-09T01:50:41;21.60;99.90
13806;DHT22;6974;53.606;9.872;2023-07-09T01:53:08;21.60;99.90
13806;DHT22;6974;53.606;9.872;2023-07-09T01:55:37;21.60;99.90
13806;DHT22;6974;53.606;9.872;2023-07-09T01:58:04;21.60;99.90
13806;DHT22;6974;53.606;9.872;2023-07-09T02:00:33;21.60;99.90
13806;DHT22;6974;53.606;9.872;2023-07-09T02:03:00;21.60;99.90
13806;DHT22;6974;53.606;9.872;2023-07-09T02:05:30;21.60;99.90
13806;DHT22;6974;53.606;9.872;2023-07-09T02:07:57;21.50;99.90
13806;DHT22;6974;53.606;9.872;2023-07-09T02:10:24;21.50;99.90
13806;DHT22;6974;53.606;9.872;2023-07-09T02:12:53;21.50;99.90
13806;DHT22;6974;53.606;9.872;2023-07-09T02:15:20;21.40;99.90
13806;DHT22;6974;53.606;9.872;2023-07-09T02:17:46;21.40;99.90
13806;DHT22;6974;53.606;9.872;2023-07-09T02:20:14;21.40;99.90
13806;DHT22;6974;53.606;9.872;2023-07-09T02:22:41;21.40;99.90
13806;DHT22;6974;53.606;9.872;2023-07-09T02:25:08;21.30;99.90
13806;DHT22;6974;53.606;9.872;2023-07-09T02:27:36;21.30;99.90
13806;DHT22;6974;53.606;9.872;2023-07-09T02:30:06;21.30;99.90
13806;DHT22;6974;53.606;9.872;2023-07-09T02:32:33;21.30;99.90
13806;DHT22;6974;53.606;9.872;2023-07-09T02:35:00;21.30;99.90
13806;DHT22;6974;53.606;9.872;2023-07-09T02:37:27;21.30;99.90
13806;DHT22;6974;53.606;9.872;2023-07-09T02:39:54;21.20;99.90
13806;DHT22;6974;53.606;9.872;2023-07-09T02:42:22;21.20;99.90
13806;DHT22;6974;53.606;9.872;2023-07-09T02:44:49;21.10;99.90
13806;DHT22;6974;53.606;9.872;2023-07-09T02:47:18;21.10;99.90
13806;DHT22;6974;53.606;9.872;2023-07-09T02:49:45;21.10;99.90
13806;DHT22;6974;53.606;9.872;2023-07-09T02:52:12;21.10;99.90
13806;DHT22;6974;53.606;9.872;2023-07-09T02:54:39;21.10;99.90
13806;DHT22;6974;53.606;9.872;2023-07-09T02:57:06;21.10;99.90
13806;DHT22;6974;53.606;9.872;2023-07-09T02:59:33;21.10;99.90
13806;DHT22;6974;53.606;9.872;2023-07-09T03:02:01;21.00;99.90
13806;DHT22;6974;53.606;9.872;2023-07-09T03:04:29;21.10;99.90
13806;DHT22;6974;53.606;9.872;2023-07-09T03:06:56;21.00;99.90
13806;DHT22;6974;53.606;9.872;2023-07-09T03:09:25;21.10;99.90
13806;DHT22;6974;53.606;9.872;2023-07-09T03:11:52;21.00;99.90
13806;DHT22;6974;53.606;9.872;2023-07-09T03:14:19;20.90;99.90
13806;DHT22;6974;53.606;9.872;2023-07-09T03:16:46;20.90;99.90
13806;DHT22;6974;53.606;9.872;2023-07-09T03:19:13;20.90;99.90
13806;DHT22;6974;53.606;9.872;2023-07-09T03:21:41;20.90;99.90
13806;DHT22;6974;53.606;9.872;2023-07-09T03:24:08;20.90;99.90
13806;DHT22;6974;53.606;9.872;2023-07-09T03:26:35;20.90;99.90
13806;DHT22;6974;53.606;9.872;2023-07-09T03:29:02;20.90;99.90
13806;DHT22;6974;53.606;9.872;2023-07-09T03:31:30;20.90;99.90
13806;DHT22;6974;53.606;9.872;2023-07-09T03:34:00;20.80;99.90
13806;DHT22;6974;53.606;9.872;2023-07-09T03:36:27;20.80;99.90
13806;DHT22;6974;53.606;9.872;2023-07-09T03:38:55;20.80;99.90
13806;DHT22;6974;53.606;9.872;2023-07-09T03:41:22;20.80;99.90
13806;DHT22;6974;53.606;9.872;2023-07-09T03:43:49;20.80;99.90
13806;DHT22;6974;53.606;9.872;2023-07-09T03:46:18;20.80;99.90
13806;DHT22;6974;53.606;9.872;2023-07-09T03:48:45;20.80;99.90
13806;DHT22;6974;53.606;9.872;2023-07-09T03:51:12;20.80;99.90
13806;DHT22;6974;53.606;9.872;2023-07-09T03:53:38;20.80;99.90
13806;DHT22;6974;53.606;9.872;2023-07-09T03:56:07;20.70;99.90
13806;DHT22;6974;53.606;9.872;2023-07-09T03:58:35;20.70;99.90
13806;DHT22;6974;53.606;9.872;2023-07-09T04:01:02;20.70;99.90
13806;DHT22;6974;53.606;9.872;2023-07-09T04:03:29;20.70;99.90
13806;DHT22;6974;53.606;9.872;2023-07-09T04:05:56;20.70;99.90
13806;DHT22;6974;53.606;9.872;2023-07-09T04:08:23;20.80;99.90
13806;DHT22;6974;53.606;9.872;2023-07-09T04:10:53;20.70;99.90
13806;DHT22;6974;53.606;9.872;2023-07-09T04:13:21;20.70;99.90
13806;DHT22;6974;53.606;9.872;2023-07-09T04:15:48;20.70;99.90
13806;DHT22;6974;53.606;9.872;2023-07-09T04:18:15;20.70;99.90
13806;DHT22;6974;53.606;9.872;2023-07-09T04:20:42;20.70;99.90
13806;DHT22;6974;53.606;9.872;2023-07-09T04:23:09;20.70;99.90
13806;DHT22;6974;53.606;9.872;2023-07-09T04:25:37;20.70;99.90
13806;DHT22;6974;53.606;9.872;2023-07-09T04:28:05;20.60;99.90
13806;DHT22;6974;53.606;9.872;2023-07-09T04:30:33;20.60;99.90
13806;DHT22;6974;53.606;9.872;2023-07-09T04:33:00;20.70;99.90
13806;DHT22;6974;53.606;9.872;2023-07-09T04:35:27;20.70;99.90
13806;DHT22;6974;53.606;9.872;2023-07-09T04:37:53;20.60;99.90
13806;DHT22;6974;53.606;9.872;2023-07-09T04:40:20;20.70;99.90
13806;DHT22;6974;53.606;9.872;2023-07-09T04:42:47;20.70;99.90
13806;DHT22;6974;53.606;9.872;2023-07-09T04:45:14;20.70;99.90
13806;DHT22;6974;53.606;9.872;2023-07-09T04:47:42;20.80;99.90
13806;DHT22;6974;53.606;9.872;2023-07-09T04:50:09;20.80;99.90
13806;DHT22;6974;53.606;9.872;2023-07-09T04:52:37;20.80;99.90
13806;DHT22;6974;53.606;9.872;2023-07-09T04:55:05;20.80;99.90
13806;DHT22;6974;53.606;9.872;2023-07-09T04:57:33;20.80;99.90
13806;DHT22;6974;53.606;9.872;2023-07-09T05:00:00;20.80;99.90
13806;DHT22;6974;53.606;9.872;2023-07-09T05:02:27;20.90;99.90
13806;DHT22;6974;53.606;9.872;2023-07-09T05:04:55;20.90;99.90
13806;DHT22;6974;53.606;9.872;2023-07-09T05:07:22;20.90;99.90
13806;DHT22;6974;53.606;9.872;2023-07-09T05:09:49;20.90;99.90
13806;DHT22;6974;53.606;9.872;2023-07-09T05:12:15;20.90;99.90
13806;DHT22;6974;53.606;9.872;2023-07-09T05:14:42;21.00;99.90
13806;DHT22;6974;53.606;9.872;2023-07-09T05:17:09;21.00;99.90
13806;DHT22;6974;53.606;9.872;2023-07-09T05:19:36;21.00;99.90
13806;DHT22;6974;53.606;9.872;2023-07-09T05:22:05;21.00;99.90
13806;DHT22;6974;53.606;9.872;2023-07-09T05:24:32;21.10;99.90
13806;DHT22;6974;53.606;9.872;2023-07-09T05:26:58;21.10;99.90
13806;DHT22;6974;53.606;9.872;2023-07-09T05:29:25;21.00;99.90
13806;DHT22;6974;53.606;9.872;2023-07-09T05:31:52;21.10;99.90
13806;DHT22;6974;53.606;9.872;2023-07-09T05:34:19;21.10;99.90
13806;DHT22;6974;53.606;9.872;2023-07-09T05:36:46;21.20;99.90
13806;DHT22;6974;53.606;9.872;2023-07-09T05:39:15;21.20;99.90
13806;DHT22;6974;53.606;9.872;2023-07-09T05:41:42;21.20;99.90
13806;DHT22;6974;53.606;9.872;2023-07-09T05:44:09;21.30;99.90
13806;DHT22;6974;53.606;9.872;2023-07-09T05:46:36;21.30;99.90
13806;DHT22;6974;53.606;9.872;2023-07-09T05:49:04;21.40;99.90
13806;DHT22;6974;53.606;9.872;2023-07-09T05:51:31;21.40;99.90
13806;DHT22;6974;53.606;9.872;2023-07-09T05:53:58;21.50;99.90
13806;DHT22;6974;53.606;9.872;2023-07-09T05:56:26;21.60;99.90
13806;DHT22;6974;53.606;9.872;2023-07-09T05:58:54;21.60;99.90
13806;DHT22;6974;53.606;9.872;2023-07-09T06:01:22;21.70;99.90
13806;DHT22;6974;53.606;9.872;2023-07-09T06:03:48;21.80;99.90
13806;DHT22;6974;53.606;9.872;2023-07-09T06:06:16;21.70;99.90
13806;DHT22;6974;53.606;9.872;2023-07-09T06:08:42;21.80;99.90
13806;DHT22;6974;53.606;9.872;2023-07-09T06:11:09;21.90;99.90
13806;DHT22;6974;53.606;9.872;2023-07-09T06:13:38;21.90;99.90
13806;DHT22;6974;53.606;9.872;2023-07-09T06:16:05;21.90;99.90
13806;DHT22;6974;53.606;9.872;2023-07-09T06:18:32;22.00;99.90
13806;DHT22;6974;53.606;9.872;2023-07-09T06:21:01;22.00;99.90
13806;DHT22;6974;53.606;9.872;2023-07-09T06:23:28;22.10;99.90
13806;DHT22;6974;53.606;9.872;2023-07-09T06:25:55;22.10;99.90
13806;DHT22;6974;53.606;9.872;2023-07-09T06:28:24;22.10;99.90
13806;DHT22;6974;53.606;9.872;2023-07-09T06:30:52;22.20;99.90
13806;DHT22;6974;53.606;9.872;2023-07-09T06:33:19;22.30;99.90
13806;DHT22;6974;53.606;9.872;2023-07-09T06:35:47;22.30;99.90
13806;DHT22;6974;53.606;9.872;2023-07-09T06:38:14;22.40;99.90
13806;DHT22;6974;53.606;9.872;2023-07-09T06:40:41;22.40;99.90
13806;DHT22;6974;53.606;9.872;2023-07-09T06:43:08;22.40;99.90
13806;DHT22;6974;53.606;9.872;2023-07-09T06:45:35;22.50;99.90
13806;DHT22;6974;53.606;9.872;2023-07-09T06:48:04;22.60;99.90
13806;DHT22;6974;53.606;9.872;2023-07-09T06:50:33;22.60;99.90
13806;DHT22;6974;53.606;9.872;2023-07-09T06:53:00;22.70;99.90
13806;DHT22;6974;53.606;9.872;2023-07-09T06:55:27;22.70;99.90
13806;DHT22;6974;53.606;9.872;2023-07-09T06:57:54;22.80;99.90
13806;DHT22;6974;53.606;9.872;2023-07-09T07:00:21;22.80;99.90
13806;DHT22;6974;53.606;9.872;2023-07-09T07:02:47;22.80;99.90
13806;DHT22;6974;53.606;9.872;2023-07-09T07:05:16;22.80;99.90
13806;DHT22;6974;53.606;9.872;2023-07-09T07:07:43;22.90;99.90
13806;DHT22;6974;53.606;9.872;2023-07-09T07:10:10;23.00;99.90
13806;DHT22;6974;53.606;9.872;2023-07-09T07:12:43;23.00;99.90
13806;DHT22;6974;53.606;9.872;2023-07-09T07:15:10;23.00;99.90
13806;DHT22;6974;53.606;9.872;2023-07-09T07:17:38;23.10;99.90
13806;DHT22;6974;53.606;9.872;2023-07-09T07:20:06;23.20;99.90
13806;DHT22;6974;53.606;9.872;2023-07-09T07:22:35;23.30;99.90
13806;DHT22;6974;53.606;9.872;2023-07-09T07:25:02;23.40;99.90
13806;DHT22;6974;53.606;9.872;2023-07-09T07:27:30;23.40;99.90
13806;DHT22;6974;53.606;9.872;2023-07-09T07:29:56;23.50;99.90
13806;DHT22;6974;53.606;9.872;2023-07-09T07:32:24;23.50;99.90
13806;DHT22;6974;53.606;9.872;2023-07-09T07:34:50;23.60;99.90
13806;DHT22;6974;53.606;9.872;2023-07-09T07:37:19;23.60;99.90
13806;DHT22;6974;53.606;9.872;2023-07-09T07:39:47;23.70;99.90
13806;DHT22;6974;53.606;9.872;2023-07-09T07:42:14;23.70;99.90
13806;DHT22;6974;53.606;9.872;2023-07-09T07:44:41;23.80;99.90
13806;DHT22;6974;53.606;9.872;2023-07-09T07:47:08;23.90;99.90
13806;DHT22;6974;53.606;9.872;2023-07-09T07:49:36;23.90;99.90
13806;DHT22;6974;53.606;9.872;2023-07-09T07:52:04;24.00;99.90
13806;DHT22;6974;53.606;9.872;2023-07-09T07:54:31;24.00;99.90
13806;DHT22;6974;53.606;9.872;2023-07-09T07:56:59;24.20;99.90
13806;DHT22;6974;53.606;9.872;2023-07-09T07:59:26;24.30;99.90
13806;DHT22;6974;53.606;9.872;2023-07-09T08:01:53;24.30;99.90
13806;DHT22;6974;53.606;9.872;2023-07-09T08:04:20;24.40;99.90
13806;DHT22;6974;53.606;9.872;2023-07-09T08:06:46;24.50;99.90
13806;DHT22;6974;53.606;9.872;2023-07-09T08:09:15;24.60;99.90
13806;DHT22;6974;53.606;9.872;2023-07-09T08:11:42;24.70;99.90
13806;DHT22;6974;53.606;9.872;2023-07-09T08:14:11;24.70;99.90
13806;DHT22;6974;53.606;9.872;2023-07-09T08:16:38;24.80;99.90
13806;DHT22;6974;53.606;9.872;2023-07-09T08:19:05;24.90;99.90
13806;DHT22;6974;53.606;9.872;2023-07-09T08:21:32;25.00;99.90
13806;DHT22;6974;53.606;9.872;2023-07-09T08:23:59;25.10;99.90
13806;DHT22;6974;53.606;9.872;2023-07-09T08:26:26;25.10;99.90
13806;DHT22;6974;53.606;9.872;2023-07-09T08:28:53;25.10;99.90
13806;DHT22;6974;53.606;9.872;2023-07-09T08:31:22;25.20;99.90
13806;DHT22;6974;53.606;9.872;2023-07-09T08:33:49;25.30;99.90
13806;DHT22;6974;53.606;9.872;2023-07-09T08:36:16;25.30;99.90
13806;DHT22;6974;53.606;9.872;2023-07-09T08:38:43;25.50;99.90
13806;DHT22;6974;53.606;9.872;2023-07-09T08:41:20;25.60;99.90
13806;DHT22;6974;53.606;9.872;2023-07-09T08:44:00;25.70;99.90
13806;DHT22;6974;53.606;9.872;2023-07-09T08:46:37;25.90;99.90
13806;DHT22;6974;53.606;9.872;2023-07-09T08:49:16;25.90;99.90
13806;DHT22;6974;53.606;9.872;2023-07-09T08:51:47;26.00;99.90
13806;DHT22;6974;53.606;9.872;2023-07-09T08:54:21;26.10;99.90
13806;DHT22;6974;53.606;9.872;2023-07-09T08:56:50;26.30;99.90
13806;DHT22;6974;53.606;9.872;2023-07-09T08:59:19;26.40;99.90
13806;DHT22;6974;53.606;9.872;2023-07-09T09:01:51;26.40;99.90
13806;DHT22;6974;53.606;9.872;2023-07-09T09:04:21;26.60;99.90
13806;DHT22;6974;53.606;9.872;2023-07-09T09:06:57;26.60;99.90
13806;DHT22;6974;53.606;9.872;2023-07-09T09:09:32;26.80;99.90
13806;DHT22;6974;53.606;9.872;2023-07-09T09:12:11;26.90;99.90
13806;DHT22;6974;53.606;9.872;2023-07-09T09:14:42;26.90;99.90
13806;DHT22;6974;53.606;9.872;2023-07-09T09:17:14;27.00;99.90
13806;DHT22;6974;53.606;9.872;2023-07-09T09:19:45;27.10;99.90
13806;DHT22;6974;53.606;9.872;2023-07-09T09:22:21;27.20;99.90
13806;DHT22;6974;53.606;9.872;2023-07-09T09:24:57;27.30;99.90
13806;DHT22;6974;53.606;9.872;2023-07-09T09:27:25;27.40;99.90
13806;DHT22;6974;53.606;9.872;2023-07-09T09:29:52;27.50;99.90
13806;DHT22;6974;53.606;9.872;2023-07-09T09:32:26;27.60;99.90
13806;DHT22;6974;53.606;9.872;2023-07-09T09:34:54;27.60;99.90
13806;DHT22;6974;53.606;9.872;2023-07-09T09:37:26;27.70;99.90
13806;DHT22;6974;53.606;9.872;2023-07-09T09:39:54;27.80;99.90
13806;DHT22;6974;53.606;9.872;2023-07-09T09:42:23;27.90;99.90
13806;DHT22;6974;53.606;9.872;2023-07-09T09:44:50;27.90;99.90
13806;DHT22;6974;53.606;9.872;2023-07-09T09:47:19;28.00;99.90
13806;DHT22;6974;53.606;9.872;2023-07-09T09:49:47;28.10;99.90
13806;DHT22;6974;53.606;9.872;2023-07-09T09:52:16;28.20;99.90
13806;DHT22;6974;53.606;9.872;2023-07-09T09:54:48;28.30;99.90
13806;DHT22;6974;53.606;9.872;2023-07-09T09:57:17;28.30;99.90
13806;DHT22;6974;53.606;9.872;2023-07-09T09:59:46;28.40;99.90
13806;DHT22;6974;53.606;9.872;2023-07-09T10:02:16;28.60;99.90
13806;DHT22;6974;53.606;9.872;2023-07-09T10:04:44;28.60;99.90
13806;DHT22;6974;53.606;9.872;2023-07-09T10:07:21;28.80;99.90
13806;DHT22;6974;53.606;9.872;2023-07-09T10:09:51;28.90;99.90
13806;DHT22;6974;53.606;9.872;2023-07-09T10:12:36;29.00;99.90
13806;DHT22;6974;53.606;9.872;2023-07-09T10:15:17;29.10;99.90
13806;DHT22;6974;53.606;9.872;2023-07-09T10:17:54;29.20;99.90
13806;DHT22;6974;53.606;9.872;2023-07-09T10:20:24;29.30;99.90
13806;DHT22;6974;53.606;9.872;2023-07-09T10:22:57;29.40;99.90
13806;DHT22;6974;53.606;9.872;2023-07-09T10:25:44;29.50;99.90
13806;DHT22;6974;53.606;9.872;2023-07-09T10:28:34;29.50;99.90
13806;DHT22;6974;53.606;9.872;2023-07-09T10:31:10;29.60;99.90
13806;DHT22;6974;53.606;9.872;2023-07-09T10:33:55;29.70;99.90
13806;DHT22;6974;53.606;9.872;2023-07-09T10:36:34;29.70;99.90
13806;DHT22;6974;53.606;9.872;2023-07-09T10:39:11;29.70;99.90
13806;DHT22;6974;53.606;9.872;2023-07-09T10:41:41;29.80;99.90
13806;DHT22;6974;53.606;9.872;2023-07-09T10:44:13;29.80;99.90
13806;DHT22;6974;53.606;9.872;2023-07-09T10:46:47;29.80;99.90
13806;DHT22;6974;53.606;9.872;2023-07-09T10:49:16;29.80;99.90
13806;DHT22;6974;53.606;9.872;2023-07-09T10:51:48;29.90;99.90
13806;DHT22;6974;53.606;9.872;2023-07-09T10:54:23;29.90;99.90
13806;DHT22;6974;53.606;9.872;2023-07-09T10:56:56;30.00;99.90
13806;DHT22;6974;53.606;9.872;2023-07-09T10:59:28;30.00;99.90
13806;DHT22;6974;53.606;9.872;2023-07-09T11:01:58;30.10;99.90
13806;DHT22;6974;53.606;9.872;2023-07-09T11:04:31;30.20;99.90
13806;DHT22;6974;53.606;9.872;2023-07-09T11:07:03;30.20;99.90
13806;DHT22;6974;53.606;9.872;2023-07-09T11:09:33;30.30;99.90
13806;DHT22;6974;53.606;9.872;2023-07-09T11:12:05;30.30;99.90
13806;DHT22;6974;53.606;9.872;2023-07-09T11:14:38;30.30;99.90
13806;DHT22;6974;53.606;9.872;2023-07-09T11:17:13;30.40;99.90
13806;DHT22;6974;53.606;9.872;2023-07-09T11:19:42;30.50;99.90
13806;DHT22;6974;53.606;9.872;2023-07-09T11:22:16;30.60;99.90
13806;DHT22;6974;53.606;9.872;2023-07-09T11:24:49;30.70;99.90
13806;DHT22;6974;53.606;9.872;2023-07-09T11:27:20;30.70;99.90
13806;DHT22;6974;53.606;9.872;2023-07-09T11:29:55;30.70;99.90
13806;DHT22;6974;53.606;9.872;2023-07-09T11:32:22;30.80;99.90
13806;DHT22;6974;53.606;9.872;2023-07-09T11:34:50;30.90;99.90
13806;DHT22;6974;53.606;9.872;2023-07-09T11:37:17;30.90;99.90
13806;DHT22;6974;53.606;9.872;2023-07-09T11:39:46;30.90;99.90
13806;DHT22;6974;53.606;9.872;2023-07-09T11:42:29;31.00;99.90
13806;DHT22;6974;53.606;9.872;2023-07-09T11:45:09;31.00;99.90
13806;DHT22;6974;53.606;9.872;2023-07-09T11:47:41;31.00;99.90
13806;DHT22;6974;53.606;9.872;2023-07-09T11:50:20;31.10;99.90
13806;DHT22;6974;53.606;9.872;2023-07-09T11:52:52;31.10;99.90
13806;DHT22;6974;53.606;9.872;2023-07-09T11:55:27;31.10;99.90
13806;DHT22;6974;53.606;9.872;2023-07-09T11:57:58;31.10;99.90
13806;DHT22;6974;53.606;9.872;2023-07-09T12:00:27;31.10;99.90
13806;DHT22;6974;53.606;9.872;2023-07-09T12:02:55;31.20;99.90
13806;DHT22;6974;53.606;9.872;2023-07-09T12:05:28;31.20;99.90
13806;DHT22;6974;53.606;9.872;2023-07-09T12:07:55;31.20;99.90
13806;DHT22;6974;53.606;9.872;2023-07-09T12:10:24;31.30;99.90
13806;DHT22;6974;53.606;9.872;2023-07-09T12:12:55;31.30;99.90
13806;DHT22;6974;53.606;9.872;2023-07-09T12:15:25;31.30;99.90
13806;DHT22;6974;53.606;9.872;2023-07-09T12:17:54;31.30;99.90
13806;DHT22;6974;53.606;9.872;2023-07-09T12:20:21;31.30;99.90
13806;DHT22;6974;53.606;9.872;2023-07-09T12:22:48;31.30;99.90
13806;DHT22;6974;53.606;9.872;2023-07-09T12:25:21;31.30;99.90
13806;DHT22;6974;53.606;9.872;2023-07-09T12:27:48;31.30;99.90
13806;DHT22;6974;53.606;9.872;2023-07-09T12:30:17;31.10;99.90
13806;DHT22;6974;53.606;9.872;2023-07-09T12:32:44;31.10;99.90
13806;DHT22;6974;53.606;9.872;2023-07-09T12:35:13;31.10;99.90
13806;DHT22;6974;53.606;9.872;2023-07-09T12:37:42;31.10;99.90
13806;DHT22;6974;53.606;9.872;2023-07-09T12:40:15;31.00;99.90
13806;DHT22;6974;53.606;9.872;2023-07-09T12:42:43;31.00;99.90
13806;DHT22;6974;53.606;9.872;2023-07-09T12:45:19;31.10;99.90
13806;DHT22;6974;53.606;9.872;2023-07-09T12:47:47;31.20;99.90
13806;DHT22;6974;53.606;9.872;2023-07-09T12:50:19;31.30;99.90
13806;DHT22;6974;53.606;9.872;2023-07-09T12:52:47;31.30;99.90
13806;DHT22;6974;53.606;9.872;2023-07-09T12:55:22;31.30;99.90
13806;DHT22;6974;53.606;9.872;2023-07-09T12:57:50;31.30;99.90
13806;DHT22;6974;53.606;9.872;2023-07-09T13:00:30;31.30;99.90
13806;DHT22;6974;53.606;9.872;2023-07-09T13:02:58;31.30;99.90
13806;DHT22;6974;53.606;9.872;2023-07-09T13:05:26;31.40;99.90
13806;DHT22;6974;53.606;9.872;2023-07-09T13:07:57;31.50;99.90
13806;DHT22;6974;53.606;9.872;2023-07-09T13:10:26;31.50;99.90
13806;DHT22;6974;53.606;9.872;2023-07-09T13:12:55;31.50;99.90
13806;DHT22;6974;53.606;9.872;2023-07-09T13:15:26;31.60;99.90
13806;DHT22;6974;53.606;9.872;2023-07-09T13:18:01;31.60;99.90
13806;DHT22;6974;53.606;9.872;2023-07-09T13:20:30;31.50;99.90
13806;DHT22;6974;53.606;9.872;2023-07-09T13:22:58;31.50;99.90
13806;DHT22;6974;53.606;9.872;2023-07-09T13:25:25;31.50;99.90
13806;DHT22;6974;53.606;9.872;2023-07-09T13:27:53;31.50;99.90
13806;DHT22;6974;53.606;9.872;2023-07-09T13:30:20;31.50;99.90
13806;DHT22;6974;53.606;9.872;2023-07-09T13:32:48;31.50;99.90
13806;DHT22;6974;53.606;9.872;2023-07-09T13:35:18;31.60;99.90
13806;DHT22;6974;53.606;9.872;2023-07-09T13:37:46;31.70;99.90
13806;DHT22;6974;53.606;9.872;2023-07-09T13:40:14;31.80;99.80
13806;DHT22;6974;53.606;9.872;2023-07-09T13:42:41;31.80;98.10
13806;DHT22;6974;53.606;9.872;2023-07-09T13:45:18;31.80;99.40
13806;DHT22;6974;53.606;9.872;2023-07-09T13:47:45;31.80;99.70
13806;DHT22;6974;53.606;9.872;2023-07-09T13:50:13;31.80;99.90
13806;DHT22;6974;53.606;9.872;2023-07-09T13:52:42;31.90;99.90
13806;DHT22;6974;53.606;9.872;2023-07-09T13:55:16;31.90;99.90
13806;DHT22;6974;53.606;9.872;2023-07-09T13:57:43;31.90;99.90
13806;DHT22;6974;53.606;9.872;2023-07-09T14:00:11;31.90;99.90
13806;DHT22;6974;53.606;9.872;2023-07-09T14:02:39;32.00;98.60
13806;DHT22;6974;53.606;9.872;2023-07-09T14:05:08;32.00;99.50
13806;DHT22;6974;53.606;9.872;2023-07-09T14:07:40;32.00;99.90
13806;DHT22;6974;53.606;9.872;2023-07-09T14:10:11;32.00;99.80
13806;DHT22;6974;53.606;9.872;2023-07-09T14:12:41;31.90;99.90
13806;DHT22;6974;53.606;9.872;2023-07-09T14:15:13;32.00;98.50
13806;DHT22;6974;53.606;9.872;2023-07-09T14:17:40;32.00;97.80
13806;DHT22;6974;53.606;9.872;2023-07-09T14:20:10;32.00;98.70
13806;DHT22;6974;53.606;9.872;2023-07-09T14:22:39;31.90;98.20
13806;DHT22;6974;53.606;9.872;2023-07-09T14:25:14;32.00;98.30
13806;DHT22;6974;53.606;9.872;2023-07-09T14:27:41;32.00;99.10
13806;DHT22;6974;53.606;9.872;2023-07-09T14:30:13;32.00;97.40
13806;DHT22;6974;53.606;9.872;2023-07-09T14:32:41;32.00;97.20
13806;DHT22;6974;53.606;9.872;2023-07-09T14:35:13;32.00;96.50
13806;DHT22;6974;53.606;9.872;2023-07-09T14:37:42;32.00;96.60
13806;DHT22;6974;53.606;9.872;2023-07-09T14:40:10;32.00;98.00
13806;DHT22;6974;53.606;9.872;2023-07-09T14:42:37;31.90;98.30
13806;DHT22;6974;53.606;9.872;2023-07-09T14:45:09;32.00;98.00
13806;DHT22;6974;53.606;9.872;2023-07-09T14:47:41;32.10;98.20
13806;DHT22;6974;53.606;9.872;2023-07-09T14:50:09;32.20;97.60
13806;DHT22;6974;53.606;9.872;2023-07-09T14:52:36;32.20;96.50
13806;DHT22;6974;53.606;9.872;2023-07-09T14:55:05;32.30;98.00
13806;DHT22;6974;53.606;9.872;2023-07-09T14:57:32;32.40;95.20
13806;DHT22;6974;53.606;9.872;2023-07-09T14:59:59;32.40;96.70
13806;DHT22;6974;53.606;9.872;2023-07-09T15:02:32;32.40;95.70
13806;DHT22;6974;53.606;9.872;2023-07-09T15:05:01;32.50;96.30
13806;DHT22;6974;53.606;9.872;2023-07-09T15:07:27;32.50;96.60
13806;DHT22;6974;53.606;9.872;2023-07-09T15:09:56;32.60;96.10
13806;DHT22;6974;53.606;9.872;2023-07-09T15:12:26;32.60;95.70
13806;DHT22;6974;53.606;9.872;2023-07-09T15:15:01;32.60;95.00
13806;DHT22;6974;53.606;9.872;2023-07-09T15:17:29;32.70;94.40
13806;DHT22;6974;53.606;9.872;2023-07-09T15:19:56;32.70;94.30
13806;DHT22;6974;53.606;9.872;2023-07-09T15:22:29;32.70;94.40
13806;DHT22;6974;53.606;9.872;2023-07-09T15:24:57;32.70;92.90
13806;DHT22;6974;53.606;9.872;2023-07-09T15:27:26;32.60;93.80
13806;DHT22;6974;53.606;9.872;2023-07-09T15:29:53;32.60;93.40
13806;DHT22;6974;53.606;9.872;2023-07-09T15:32:20;32.60;93.60
13806;DHT22;6974;53.606;9.872;2023-07-09T15:34:47;32.50;93.50
13806;DHT22;6974;53.606;9.872;2023-07-09T15:37:16;32.50;93.70
13806;DHT22;6974;53.606;9.872;2023-07-09T15:39:44;32.50;93.60
13806;DHT22;6974;53.606;9.872;2023-07-09T15:42:11;32.40;93.50
13806;DHT22;6974;53.606;9.872;2023-07-09T15:44:40;32.30;93.70
13806;DHT22;6974;53.606;9.872;2023-07-09T15:47:17;32.20;94.20
13806;DHT22;6974;53.606;9.872;2023-07-09T15:49:45;32.20;94.70
13806;DHT22;6974;53.606;9.872;2023-07-09T15:52:12;32.10;95.50
13806;DHT22;6974;53.606;9.872;2023-07-09T15:54:39;32.00;95.10
13806;DHT22;6974;53.606;9.872;2023-07-09T15:57:07;32.00;94.20